createdAt,value
2022-09-09T00:02:16.890Z,9.90
2022-09-09T00:04:59.298Z,9.90
2022-09-09T00:07:26.123Z,9.90
2022-09-09T00:10:08.722Z,9.90
2022-09-09T00:12:43.688Z,10.00
2022-09-09T00:15:18.537Z,9.90
2022-09-09T00:18:04.164Z,10.00
2022-09-09T00:20:41.447Z,9.90
2022-09-09T00:23:29.346Z,10.00
2022-09-09T00:26:23.313Z,10.00
2022-09-09T00:29:00.064Z,10.00
2022-09-09T00:31:30.243Z,10.00
2022-09-09T00:34:05.926Z,10.00
2022-09-09T00:36:35.507Z,9.90
2022-09-09T00:39:03.838Z,10.00
2022-09-09T00:42:00.304Z,10.00
2022-09-09T00:44:39.036Z,10.00
2022-09-09T00:47:13.958Z,10.00
2022-09-09T00:50:09.448Z,10.00
2022-09-09T00:52:47.105Z,10.00
2022-09-09T00:55:28.877Z,10.00
2022-09-09T00:57:56.909Z,10.00
2022-09-09T01:00:30.976Z,10.00
2022-09-09T01:03:34.663Z,10.00
2022-09-09T01:06:16.802Z,10.00
2022-09-09T01:09:08.398Z,9.90
2022-09-09T01:11:58.350Z,9.90
2022-09-09T01:14:35.588Z,9.90
2022-09-09T01:17:25.313Z,9.80
2022-09-09T01:19:59.373Z,9.80
2022-09-09T01:22:40.203Z,9.80
2022-09-09T01:25:22.198Z,9.80
2022-09-09T01:28:22.997Z,9.80
2022-09-09T01:30:52.074Z,9.80
2022-09-09T01:33:22.338Z,9.70
2022-09-09T01:36:03.634Z,9.70
2022-09-09T01:38:37.662Z,9.70
2022-09-09T01:41:05.291Z,9.70
2022-09-09T01:43:43.492Z,9.70
2022-09-09T01:46:12.194Z,9.70
2022-09-09T01:48:41.781Z,9.70
2022-09-09T01:51:11.560Z,9.70
2022-09-09T01:53:42.587Z,9.70
2022-09-09T01:56:19.809Z,9.70
2022-09-09T01:58:58.629Z,9.70
2022-09-09T02:01:38.078Z,9.70
2022-09-09T02:04:31.204Z,9.70
2022-09-09T02:06:58.955Z,9.70
2022-09-09T02:09:31.558Z,9.70
2022-09-09T02:12:12.855Z,9.70
2022-09-09T02:14:56.103Z,9.70
2022-09-09T02:17:34.101Z,9.70
2022-09-09T02:20:13.957Z,9.70
2022-09-09T02:22:51.145Z,9.70
2022-09-09T02:25:23.266Z,9.70
2022-09-09T02:27:55.098Z,9.70
2022-09-09T02:30:22.462Z,9.70
2022-09-09T02:33:00.281Z,9.80
2022-09-09T02:35:45.081Z,9.80
2022-09-09T02:38:16.314Z,9.80
2022-09-09T02:40:54.253Z,9.80
2022-09-09T02:43:21.597Z,9.80
2022-09-09T02:46:09.081Z,9.80
2022-09-09T02:49:29.599Z,9.80
2022-09-09T02:52:01.139Z,9.80
2022-09-09T02:54:34.518Z,9.80
2022-09-09T02:57:12.464Z,9.80
2022-09-09T02:59:42.542Z,9.80
2022-09-09T03:02:11.201Z,9.80
2022-09-09T03:04:40.170Z,9.90
2022-09-09T03:07:07.750Z,9.90
2022-09-09T03:09:34.596Z,9.90
2022-09-09T03:12:01.568Z,9.90
2022-09-09T03:14:29.457Z,9.90
2022-09-09T03:16:57.521Z,9.90
2022-09-09T03:19:25.593Z,9.90
2022-09-09T03:21:52.882Z,10.00
2022-09-09T03:24:19.773Z,10.00
2022-09-09T03:26:46.733Z,10.00
2022-09-09T03:29:17.515Z,10.00
2022-09-09T03:31:45.168Z,10.00
2022-09-09T03:34:12.696Z,10.00
2022-09-09T03:36:39.517Z,10.00
2022-09-09T03:39:06.584Z,10.00
2022-09-09T03:41:33.520Z,10.00
2022-09-09T03:44:02.095Z,10.00
2022-09-09T03:46:33.328Z,10.00
2022-09-09T03:49:01.096Z,10.00
2022-09-09T03:51:27.986Z,10.00
2022-09-09T03:53:56.506Z,10.00
2022-09-09T03:56:23.595Z,10.00
2022-09-09T03:58:50.512Z,10.10
2022-09-09T04:01:18.865Z,10.10
2022-09-09T04:03:47.213Z,10.10
2022-09-09T04:06:16.041Z,10.20
2022-09-09T04:08:46.096Z,10.10
2022-09-09T04:11:14.007Z,10.10
2022-09-09T04:13:41.231Z,10.10
2022-09-09T04:16:14.203Z,10.10
2022-09-09T04:18:42.327Z,10.10
2022-09-09T04:21:11.153Z,10.10
2022-09-09T04:23:38.054Z,10.20
2022-09-09T04:26:06.799Z,10.20
2022-09-09T04:28:36.682Z,10.20
2022-09-09T04:31:10.859Z,10.30
2022-09-09T04:33:40.733Z,10.20
2022-09-09T04:36:09.461Z,10.20
2022-09-09T04:38:37.310Z,10.30
2022-09-09T04:41:05.721Z,10.30
2022-09-09T04:43:35.357Z,10.40
2022-09-09T04:46:04.408Z,10.40
2022-09-09T04:48:32.698Z,10.50
2022-09-09T04:51:06.107Z,10.50
2022-09-09T04:53:35.331Z,10.50
2022-09-09T04:56:06.771Z,10.60
2022-09-09T04:58:38.175Z,10.70
2022-09-09T05:01:25.527Z,10.70
2022-09-09T05:03:54.366Z,10.70
2022-09-09T05:06:23.831Z,10.80
2022-09-09T05:08:55.231Z,10.90
2022-09-09T05:11:30.923Z,10.90
2022-09-09T05:14:02.185Z,10.90
2022-09-09T05:16:31.229Z,11.00
2022-09-09T05:18:58.594Z,11.10
2022-09-09T05:21:27.385Z,11.10
2022-09-09T05:23:54.288Z,11.20
2022-09-09T05:26:23.772Z,11.30
2022-09-09T05:28:52.873Z,11.40
2022-09-09T05:31:20.547Z,11.40
2022-09-09T05:33:50.599Z,11.50
2022-09-09T05:36:19.977Z,11.60
2022-09-09T05:38:50.258Z,11.60
2022-09-09T05:41:18.595Z,11.60
2022-09-09T05:43:48.582Z,11.80
2022-09-09T05:46:23.283Z,11.80
2022-09-09T05:48:53.221Z,11.90
2022-09-09T05:51:25.625Z,12.00
2022-09-09T05:53:52.883Z,12.00
2022-09-09T05:56:26.241Z,12.20
2022-09-09T05:58:57.566Z,12.30
2022-09-09T06:01:33.909Z,12.30
2022-09-09T06:04:03.127Z,12.40
2022-09-09T06:06:37.601Z,12.50
2022-09-09T06:09:11.467Z,12.60
2022-09-09T06:11:41.466Z,12.70
2022-09-09T06:14:09.742Z,12.70
2022-09-09T06:16:38.915Z,12.80
2022-09-09T06:19:13.161Z,12.80
2022-09-09T06:21:41.198Z,12.90
2022-09-09T06:24:09.772Z,13.00
2022-09-09T06:26:41.591Z,13.00
2022-09-09T06:29:10.939Z,13.10
2022-09-09T06:31:38.544Z,13.10
2022-09-09T06:34:18.549Z,13.20
2022-09-09T06:36:50.352Z,13.30
2022-09-09T06:39:17.275Z,13.30
2022-09-09T06:41:45.306Z,13.40
2022-09-09T06:44:35.530Z,13.50
2022-09-09T06:47:04.368Z,13.60
2022-09-09T06:49:32.142Z,13.60
2022-09-09T06:51:59.536Z,13.70
2022-09-09T06:54:27.952Z,13.70
2022-09-09T06:56:54.950Z,13.80
2022-09-09T06:59:24.056Z,13.80
2022-09-09T07:01:56.230Z,13.90
2022-09-09T07:04:23.694Z,13.90
2022-09-09T07:06:53.432Z,13.90
2022-09-09T07:09:24.834Z,14.00
2022-09-09T07:11:53.850Z,14.00
2022-09-09T07:14:23.208Z,14.10
2022-09-09T07:17:01.296Z,14.20
2022-09-09T07:19:33.384Z,14.20
2022-09-09T07:22:04.363Z,14.30
2022-09-09T07:24:32.750Z,14.40
2022-09-09T07:27:00.622Z,14.40
2022-09-09T07:29:27.688Z,14.50
2022-09-09T07:31:54.581Z,14.50
2022-09-09T07:34:26.378Z,14.50
2022-09-09T07:36:53.233Z,14.60
2022-09-09T07:39:20.710Z,14.60
2022-09-09T07:41:52.089Z,14.70
2022-09-09T07:44:25.731Z,14.70
2022-09-09T07:46:59.901Z,14.70
2022-09-09T07:49:33.527Z,14.70
2022-09-09T07:52:02.831Z,14.80
2022-09-09T07:54:29.827Z,14.90
2022-09-09T07:56:57.894Z,14.90
2022-09-09T07:59:28.850Z,15.00
2022-09-09T08:01:56.539Z,15.00
2022-09-09T08:04:29.206Z,15.10
2022-09-09T08:07:02.040Z,15.10
2022-09-09T08:09:33.232Z,15.10
2022-09-09T08:12:16.386Z,15.20
2022-09-09T08:14:43.539Z,15.20
2022-09-09T08:17:10.918Z,15.20
2022-09-09T08:19:38.524Z,15.30
2022-09-09T08:22:11.007Z,15.30
2022-09-09T08:24:40.337Z,15.30
2022-09-09T08:27:07.946Z,15.30
2022-09-09T08:29:34.987Z,15.40
2022-09-09T08:32:03.286Z,15.40
2022-09-09T08:34:32.245Z,15.40
2022-09-09T08:37:02.776Z,15.40
2022-09-09T08:39:35.571Z,15.50
2022-09-09T08:42:15.015Z,15.60
2022-09-09T08:44:49.055Z,15.60
2022-09-09T08:47:36.006Z,15.70
2022-09-09T08:50:25.845Z,15.80
2022-09-09T08:53:12.192Z,15.90
2022-09-09T08:55:45.746Z,16.00
2022-09-09T08:58:17.747Z,16.10
2022-09-09T09:01:25.213Z,16.10
2022-09-09T09:03:56.025Z,16.20
2022-09-09T09:06:23.874Z,16.20
2022-09-09T09:09:03.182Z,16.30
2022-09-09T09:11:54.382Z,16.40
2022-09-09T09:14:26.826Z,16.40
2022-09-09T09:17:07.401Z,16.60
2022-09-09T09:19:35.915Z,16.70
2022-09-09T09:22:12.398Z,16.70
2022-09-09T09:25:07.201Z,16.80
2022-09-09T09:27:34.286Z,16.80
2022-09-09T09:30:25.362Z,16.80
2022-09-09T09:33:09.560Z,16.80
2022-09-09T09:35:41.693Z,16.90
2022-09-09T09:41:10.584Z,16.90
2022-09-09T09:43:43.551Z,17.00
2022-09-09T09:46:24.848Z,17.00
2022-09-09T09:49:01.486Z,17.00
2022-09-09T09:51:33.260Z,17.10
2022-09-09T09:54:06.990Z,17.10
2022-09-09T09:56:34.361Z,17.10
2022-09-09T09:59:09.368Z,17.20
2022-09-09T10:01:45.021Z,17.20
2022-09-09T10:04:27.219Z,17.30
2022-09-09T10:06:57.036Z,17.30
2022-09-09T10:09:26.873Z,17.40
2022-09-09T10:12:21.118Z,17.50
2022-09-09T10:15:23.746Z,17.50
2022-09-09T10:18:12.193Z,17.50
2022-09-09T10:21:06.610Z,17.70
2022-09-09T10:24:03.939Z,17.70
2022-09-09T10:26:48.917Z,17.70
2022-09-09T10:29:45.017Z,17.70
2022-09-09T10:32:23.590Z,17.80
2022-09-09T10:35:19.000Z,17.90
2022-09-09T10:37:57.596Z,18.00
2022-09-09T10:40:43.358Z,18.10
2022-09-09T10:43:17.913Z,18.10
2022-09-09T10:46:23.907Z,18.20
2022-09-09T10:49:09.974Z,18.10
2022-09-09T10:52:04.107Z,18.30
2022-09-09T10:54:52.687Z,18.30
2022-09-09T10:57:33.059Z,18.30
2022-09-09T11:00:02.810Z,18.30
2022-09-09T11:02:35.386Z,18.30
2022-09-09T11:05:11.624Z,18.30
2022-09-09T11:07:44.293Z,18.30
2022-09-09T11:10:25.248Z,18.30
2022-09-09T11:12:57.718Z,18.40
2022-09-09T11:15:42.137Z,18.40
2022-09-09T11:18:14.990Z,18.50
2022-09-09T11:20:43.081Z,18.60
2022-09-09T11:23:26.974Z,18.60
2022-09-09T11:25:58.636Z,18.60
2022-09-09T11:28:48.575Z,18.60
2022-09-09T11:31:42.955Z,18.70
2022-09-09T11:34:28.740Z,18.70
2022-09-09T11:37:27.249Z,18.70
2022-09-09T11:39:54.173Z,18.70
2022-09-09T11:42:24.144Z,18.70
2022-09-09T11:44:51.945Z,18.70
2022-09-09T11:47:25.623Z,18.70
2022-09-09T11:49:53.381Z,18.80
2022-09-09T11:52:44.331Z,18.70
2022-09-09T11:55:24.790Z,18.60
2022-09-09T11:58:02.880Z,18.60
2022-09-09T12:00:41.274Z,18.60
2022-09-09T12:03:34.418Z,18.70
2022-09-09T12:06:10.438Z,18.90
2022-09-09T12:08:38.039Z,18.90
2022-09-09T12:11:05.621Z,19.00
2022-09-09T12:13:32.785Z,19.10
2022-09-09T12:16:01.758Z,19.00
2022-09-09T12:18:39.219Z,18.90
2022-09-09T12:21:43.325Z,18.90
2022-09-09T12:24:18.417Z,19.00
2022-09-09T12:26:55.312Z,19.00
2022-09-09T12:30:03.174Z,19.00
2022-09-09T12:32:31.112Z,18.90
2022-09-09T12:35:06.747Z,18.90
2022-09-09T12:37:54.953Z,19.10
2022-09-09T12:40:26.218Z,19.20
2022-09-09T12:42:53.298Z,19.20
2022-09-09T12:45:22.400Z,19.20
2022-09-09T12:47:56.429Z,19.20
2022-09-09T12:50:28.663Z,19.20
2022-09-09T12:52:59.514Z,19.30
2022-09-09T12:55:31.231Z,19.40
2022-09-09T12:58:00.502Z,19.30
2022-09-09T13:00:29.134Z,19.40
2022-09-09T13:02:59.817Z,19.50
2022-09-09T13:05:29.720Z,19.50
2022-09-09T13:08:08.436Z,19.50
2022-09-09T13:11:00.188Z,19.50
2022-09-09T13:13:34.540Z,19.50
2022-09-09T13:16:03.030Z,19.40
2022-09-09T13:18:32.807Z,19.40
2022-09-09T13:21:00.292Z,19.30
2022-09-09T13:23:36.258Z,19.40
2022-09-09T13:26:05.485Z,19.40
2022-09-09T13:28:34.482Z,19.50
2022-09-09T13:31:04.684Z,19.60
2022-09-09T13:33:38.341Z,19.50
2022-09-09T13:36:07.399Z,19.50
2022-09-09T13:38:41.696Z,19.50
2022-09-09T13:41:11.476Z,19.40
2022-09-09T13:43:44.058Z,19.40
2022-09-09T13:46:35.654Z,19.30
2022-09-09T13:49:10.099Z,19.10
2022-09-09T13:51:38.543Z,19.10
2022-09-09T13:54:11.178Z,19.10
2022-09-09T13:56:40.167Z,19.30
2022-09-09T13:59:11.673Z,19.10
2022-09-09T14:01:38.805Z,18.80
2022-09-09T14:04:09.581Z,18.80
2022-09-09T14:06:40.305Z,18.80
2022-09-09T14:09:08.636Z,18.70
2022-09-09T14:11:35.617Z,18.60
2022-09-09T14:14:02.597Z,18.50
2022-09-09T14:16:30.280Z,18.50
2022-09-09T14:18:58.121Z,18.50
2022-09-09T14:21:25.540Z,18.50
2022-09-09T14:23:53.807Z,18.50
2022-09-09T14:26:24.859Z,18.50
2022-09-09T14:28:55.278Z,18.50
2022-09-09T14:31:26.193Z,18.50
2022-09-09T14:33:53.670Z,18.70
2022-09-09T14:36:20.752Z,18.90
2022-09-09T14:38:47.703Z,19.00
2022-09-09T14:41:20.716Z,19.10
2022-09-09T14:43:48.050Z,19.30
2022-09-09T14:46:17.535Z,19.30
2022-09-09T14:48:46.272Z,19.20
2022-09-09T14:51:18.513Z,19.00
2022-09-09T14:53:46.413Z,18.90
2022-09-09T14:56:16.836Z,19.10
2022-09-09T14:58:44.786Z,19.00
2022-09-09T15:01:19.983Z,18.90
2022-09-09T15:03:55.179Z,19.00
2022-09-09T15:06:24.779Z,19.20
2022-09-09T15:08:53.451Z,19.30
2022-09-09T15:11:21.745Z,19.30
2022-09-09T15:13:53.035Z,19.10
2022-09-09T15:16:20.889Z,18.90
2022-09-09T15:18:51.212Z,18.60
2022-09-09T15:21:20.096Z,18.20
2022-09-09T15:23:48.507Z,17.90
2022-09-09T15:26:16.233Z,17.70
2022-09-09T15:28:44.605Z,17.50
2022-09-09T15:31:20.952Z,17.50
2022-09-09T15:33:52.838Z,17.40
2022-09-09T15:36:22.992Z,17.30
2022-09-09T15:38:50.805Z,17.10
2022-09-09T15:41:19.160Z,17.00
2022-09-09T15:43:48.232Z,16.80
2022-09-09T15:46:18.152Z,16.70
2022-09-09T15:48:47.320Z,16.60
2022-09-09T15:51:38.105Z,16.50
2022-09-09T15:54:02.901Z,16.30
2022-09-09T15:56:36.639Z,16.30
2022-09-09T15:59:04.434Z,16.30
2022-09-09T16:01:32.667Z,16.20
2022-09-09T16:04:01.069Z,16.10
2022-09-09T16:06:29.484Z,16.10
2022-09-09T16:08:57.941Z,16.00
2022-09-09T16:11:27.757Z,16.00
2022-09-09T16:13:56.589Z,15.90
2022-09-09T16:16:28.663Z,15.80
2022-09-09T16:18:58.171Z,15.70
2022-09-09T16:21:30.159Z,15.60
2022-09-09T16:24:00.381Z,15.50
2022-09-09T16:26:28.705Z,15.50
2022-09-09T16:28:55.662Z,15.40
2022-09-09T16:31:24.784Z,15.40
2022-09-09T16:33:52.091Z,15.40
2022-09-09T16:36:21.913Z,15.30
2022-09-09T16:38:49.064Z,15.30
2022-09-09T16:41:16.269Z,15.20
2022-09-09T16:43:43.169Z,15.20
2022-09-09T16:46:16.619Z,15.10
2022-09-09T16:48:47.752Z,15.00
2022-09-09T16:51:21.958Z,15.00
2022-09-09T16:53:48.916Z,15.00
2022-09-09T16:56:19.690Z,14.90
2022-09-09T16:58:56.212Z,14.90
2022-09-09T17:01:27.502Z,14.80
2022-09-09T17:04:01.403Z,14.80
2022-09-09T17:06:30.050Z,14.70
2022-09-09T17:09:02.862Z,14.70
2022-09-09T17:11:31.074Z,14.60
2022-09-09T17:14:01.515Z,14.50
2022-09-09T17:16:29.396Z,14.40
2022-09-09T17:18:57.273Z,14.40
2022-09-09T17:21:26.503Z,14.30
2022-09-09T17:23:55.100Z,14.30
2022-09-09T17:26:23.807Z,14.20
2022-09-09T17:28:50.711Z,14.20
2022-09-09T17:31:19.546Z,14.10
2022-09-09T17:33:49.323Z,14.10
2022-09-09T17:36:19.563Z,14.00
2022-09-09T17:38:47.854Z,13.90
2022-09-09T17:41:26.894Z,13.90
2022-09-09T17:43:53.893Z,13.90
2022-09-09T17:46:38.491Z,13.80
2022-09-09T17:49:08.048Z,13.80
2022-09-09T17:51:36.036Z,13.80
2022-09-09T17:54:10.055Z,13.80
2022-09-09T17:56:38.638Z,13.80
2022-09-09T17:59:06.997Z,13.80
2022-09-09T18:01:36.348Z,13.80
2022-09-09T18:04:05.078Z,13.80
2022-09-09T18:06:40.494Z,13.80
2022-09-09T18:09:11.079Z,13.80
2022-09-09T18:11:43.031Z,13.70
2022-09-09T18:14:13.026Z,13.70
2022-09-09T18:16:41.018Z,13.70
2022-09-09T18:19:10.351Z,13.70
2022-09-09T18:21:37.387Z,13.70
2022-09-09T18:24:06.873Z,13.70
2022-09-09T18:26:35.137Z,13.70
2022-09-09T18:29:07.852Z,13.70
2022-09-09T18:31:37.866Z,13.70
2022-09-09T18:34:07.031Z,13.70
2022-09-09T18:36:36.729Z,13.70
2022-09-09T18:39:05.415Z,13.80
2022-09-09T18:41:37.631Z,13.70
2022-09-09T18:44:08.279Z,13.80
2022-09-09T18:46:37.580Z,13.80
2022-09-09T18:49:05.879Z,13.80
2022-09-09T18:51:37.230Z,13.80
2022-09-09T18:54:09.431Z,13.80
2022-09-09T18:56:37.121Z,13.90
2022-09-09T18:59:07.394Z,13.90
2022-09-09T19:01:35.775Z,13.90
2022-09-09T19:04:06.140Z,13.90
2022-09-09T19:06:34.737Z,14.00
2022-09-09T19:09:03.536Z,14.00
2022-09-09T19:11:31.232Z,14.10
2022-09-09T19:14:03.450Z,14.10
2022-09-09T19:16:33.054Z,14.10
2022-09-09T19:19:02.151Z,14.20
2022-09-09T19:21:38.170Z,14.20
2022-09-09T19:24:11.573Z,14.20
2022-09-09T19:26:43.431Z,14.20
2022-09-09T19:29:15.226Z,14.20
2022-09-09T19:32:09.387Z,14.20
2022-09-09T19:34:33.675Z,14.30
2022-09-09T19:37:00.630Z,14.30
2022-09-09T19:39:27.688Z,14.30
2022-09-09T19:41:54.503Z,14.30
2022-09-09T19:44:22.464Z,14.30
2022-09-09T19:46:50.056Z,14.30
2022-09-09T19:49:17.612Z,14.40
2022-09-09T19:51:44.630Z,14.40
2022-09-09T19:54:14.099Z,14.30
2022-09-09T19:56:42.652Z,14.40
2022-09-09T19:59:11.756Z,14.40
2022-09-09T20:01:41.631Z,14.40
2022-09-09T20:04:08.793Z,14.40
2022-09-09T20:06:40.838Z,14.40
2022-09-09T20:09:10.524Z,14.50
2022-09-09T20:11:39.268Z,14.40
2022-09-09T20:14:06.710Z,14.50
2022-09-09T20:16:34.102Z,14.50
2022-09-09T20:19:06.578Z,14.50
2022-09-09T20:21:36.627Z,14.50
2022-09-09T20:24:06.490Z,14.50
2022-09-09T20:26:37.479Z,14.50
2022-09-09T20:29:07.710Z,14.50
2022-09-09T20:31:37.063Z,14.50
2022-09-09T20:34:06.067Z,14.50
2022-09-09T20:36:35.512Z,14.60
2022-09-09T20:39:08.341Z,14.60
2022-09-09T20:41:37.601Z,14.60
2022-09-09T20:44:12.365Z,14.60
2022-09-09T20:46:43.084Z,14.50
2022-09-09T20:49:11.629Z,14.50
2022-09-09T20:51:39.097Z,14.50
2022-09-09T20:54:15.906Z,14.50
2022-09-09T20:56:45.154Z,14.40
2022-09-09T20:59:15.281Z,14.40
2022-09-09T21:01:42.400Z,14.30
2022-09-09T21:04:09.781Z,14.30
2022-09-09T21:06:37.155Z,14.30
2022-09-09T21:09:04.536Z,14.20
2022-09-09T21:11:31.838Z,14.20
2022-09-09T21:13:59.641Z,14.20
2022-09-09T21:16:26.582Z,14.20
2022-09-09T21:18:53.813Z,14.20
2022-09-09T21:21:21.414Z,14.10
2022-09-09T21:23:49.663Z,14.10
2022-09-09T21:26:18.221Z,14.10
2022-09-09T21:28:45.384Z,14.00
2022-09-09T21:31:19.300Z,14.00
2022-09-09T21:33:46.352Z,14.00
2022-09-09T21:36:14.691Z,14.00
2022-09-09T21:38:42.203Z,14.00
2022-09-09T21:41:14.256Z,14.00
2022-09-09T21:43:45.397Z,13.90
2022-09-09T21:46:15.716Z,13.90
2022-09-09T21:48:43.106Z,13.90
2022-09-09T21:51:15.153Z,13.90
2022-09-09T21:53:43.383Z,13.80
2022-09-09T21:56:16.303Z,13.80
2022-09-09T21:58:43.333Z,13.80
2022-09-09T22:01:12.103Z,13.80
2022-09-09T22:03:40.076Z,13.70
2022-09-09T22:06:08.532Z,13.70
2022-09-09T22:08:36.412Z,13.70
2022-09-09T22:11:12.296Z,13.60
2022-09-09T22:13:39.489Z,13.70
2022-09-09T22:16:08.468Z,13.70
2022-09-09T22:18:36.026Z,13.70
2022-09-09T22:21:08.385Z,13.70
2022-09-09T22:23:36.705Z,13.70
2022-09-09T22:26:04.577Z,13.60
2022-09-09T22:28:31.727Z,13.60
2022-09-09T22:30:58.755Z,13.60
2022-09-09T22:33:27.283Z,13.60
2022-09-09T22:35:54.481Z,13.50
2022-09-09T22:38:22.342Z,13.50
2022-09-09T22:40:49.605Z,13.50
2022-09-09T22:43:21.582Z,13.50
2022-09-09T22:45:49.027Z,13.40
2022-09-09T22:48:15.929Z,13.40
2022-09-09T22:50:42.924Z,13.40
2022-09-09T22:53:13.510Z,13.40
2022-09-09T22:55:40.945Z,13.40
2022-09-09T22:58:07.928Z,13.30
2022-09-09T23:00:35.206Z,13.30
2022-09-09T23:03:02.120Z,13.30
2022-09-09T23:05:28.960Z,13.20
2022-09-09T23:07:58.455Z,13.20
2022-09-09T23:10:33.109Z,13.10
2022-09-09T23:13:00.421Z,13.10
2022-09-09T23:15:29.341Z,13.00
2022-09-09T23:17:56.190Z,13.00
2022-09-09T23:20:24.178Z,12.90
2022-09-09T23:22:51.003Z,12.90
2022-09-09T23:25:17.880Z,12.80
2022-09-09T23:27:45.595Z,12.80
2022-09-09T23:30:12.835Z,12.70
2022-09-09T23:32:39.704Z,12.60
2022-09-09T23:35:07.528Z,12.60
2022-09-09T23:37:34.683Z,12.60
2022-09-09T23:40:01.808Z,12.60
2022-09-09T23:42:29.536Z,12.60
2022-09-09T23:44:57.444Z,12.50
2022-09-09T23:47:25.421Z,12.50
2022-09-09T23:49:52.284Z,12.50
2022-09-09T23:52:19.125Z,12.50
2022-09-09T23:54:45.919Z,12.40
2022-09-09T23:57:13.722Z,12.40
2022-09-09T23:59:40.627Z,12.40
